sensor_id;sensor_type;location;lat;lon;timestamp;P1;durP1;ratioP1;P2;durP2;ratioP2
44824;SDS011;30542;47.928;2.138;2023-04-12T00:02:49;4.43;;;1.63;;
44824;SDS011;30542;47.928;2.138;2023-04-12T00:07:53;3.05;;;1.13;;
44824;SDS011;30542;47.928;2.138;2023-04-12T00:12:53;2.72;;;1.23;;
44824;SDS011;30542;47.928;2.138;2023-04-12T00:17:54;3.75;;;1.45;;
44824;SDS011;30542;47.928;2.138;2023-04-12T00:22:55;2.90;;;1.20;;
44824;SDS011;30542;47.928;2.138;2023-04-12T00:27:56;2.60;;;1.38;;
44824;SDS011;30542;47.928;2.138;2023-04-12T00:32:57;3.30;;;1.25;;
44824;SDS011;30542;47.928;2.138;2023-04-12T00:37:58;3.40;;;1.52;;
44824;SDS011;30542;47.928;2.138;2023-04-12T00:42:59;4.17;;;1.40;;
44824;SDS011;30542;47.928;2.138;2023-04-12T00:47:59;3.00;;;1.30;;
44824;SDS011;30542;47.928;2.138;2023-04-12T00:53:01;3.22;;;1.10;;
44824;SDS011;30542;47.928;2.138;2023-04-12T00:58:02;1.75;;;0.90;;
44824;SDS011;30542;47.928;2.138;2023-04-12T01:03:04;4.40;;;1.40;;
44824;SDS011;30542;47.928;2.138;2023-04-12T01:08:08;2.40;;;0.80;;
44824;SDS011;30542;47.928;2.138;2023-04-12T01:18:36;1.60;;;0.73;;
44824;SDS011;30542;47.928;2.138;2023-04-12T01:24:00;3.53;;;1.17;;
44824;SDS011;30542;47.928;2.138;2023-04-12T01:29:20;2.13;;;0.95;;
44824;SDS011;30542;47.928;2.138;2023-04-12T01:34:21;2.20;;;0.80;;
44824;SDS011;30542;47.928;2.138;2023-04-12T01:39:22;2.30;;;0.70;;
44824;SDS011;30542;47.928;2.138;2023-04-12T01:44:24;2.50;;;0.77;;
44824;SDS011;30542;47.928;2.138;2023-04-12T01:49:25;1.80;;;0.52;;
44824;SDS011;30542;47.928;2.138;2023-04-12T01:54:40;1.88;;;0.55;;
44824;SDS011;30542;47.928;2.138;2023-04-12T01:59:43;3.92;;;0.88;;
44824;SDS011;30542;47.928;2.138;2023-04-12T02:04:46;3.70;;;1.02;;
44824;SDS011;30542;47.928;2.138;2023-04-12T02:09:47;2.00;;;0.70;;
44824;SDS011;30542;47.928;2.138;2023-04-12T02:14:47;2.58;;;0.85;;
44824;SDS011;30542;47.928;2.138;2023-04-12T02:19:50;3.25;;;0.93;;
44824;SDS011;30542;47.928;2.138;2023-04-12T02:24:51;3.65;;;0.90;;
44824;SDS011;30542;47.928;2.138;2023-04-12T02:29:52;2.78;;;1.35;;
44824;SDS011;30542;47.928;2.138;2023-04-12T02:34:52;2.92;;;1.10;;
44824;SDS011;30542;47.928;2.138;2023-04-12T02:39:52;3.47;;;0.90;;
44824;SDS011;30542;47.928;2.138;2023-04-12T02:44:55;2.25;;;0.73;;
44824;SDS011;30542;47.928;2.138;2023-04-12T02:49:56;1.48;;;0.63;;
44824;SDS011;30542;47.928;2.138;2023-04-12T02:54:56;2.23;;;0.63;;
44824;SDS011;30542;47.928;2.138;2023-04-12T02:59:57;2.70;;;0.85;;
44824;SDS011;30542;47.928;2.138;2023-04-12T03:04:57;2.40;;;0.60;;
44824;SDS011;30542;47.928;2.138;2023-04-12T03:09:57;3.20;;;0.80;;
44824;SDS011;30542;47.928;2.138;2023-04-12T03:14:58;1.73;;;0.70;;
44824;SDS011;30542;47.928;2.138;2023-04-12T03:20:05;2.20;;;0.90;;
44824;SDS011;30542;47.928;2.138;2023-04-12T03:25:09;2.28;;;0.65;;
44824;SDS011;30542;47.928;2.138;2023-04-12T03:30:10;2.30;;;0.50;;
44824;SDS011;30542;47.928;2.138;2023-04-12T03:35:10;1.48;;;0.50;;
44824;SDS011;30542;47.928;2.138;2023-04-12T03:40:11;2.40;;;0.70;;
44824;SDS011;30542;47.928;2.138;2023-04-12T03:45:12;1.10;;;0.38;;
44824;SDS011;30542;47.928;2.138;2023-04-12T03:50:12;1.80;;;0.50;;
44824;SDS011;30542;47.928;2.138;2023-04-12T03:55:12;1.40;;;0.40;;
44824;SDS011;30542;47.928;2.138;2023-04-12T04:00:17;1.55;;;0.82;;
44824;SDS011;30542;47.928;2.138;2023-04-12T04:05:17;1.57;;;0.53;;
44824;SDS011;30542;47.928;2.138;2023-04-12T04:10:17;1.90;;;0.50;;
44824;SDS011;30542;47.928;2.138;2023-04-12T04:15:18;1.73;;;0.67;;
44824;SDS011;30542;47.928;2.138;2023-04-12T04:20:18;1.95;;;0.40;;
44824;SDS011;30542;47.928;2.138;2023-04-12T04:25:19;1.30;;;0.40;;
44824;SDS011;30542;47.928;2.138;2023-04-12T04:30:20;1.63;;;0.70;;
44824;SDS011;30542;47.928;2.138;2023-04-12T04:35:22;2.10;;;0.60;;
44824;SDS011;30542;47.928;2.138;2023-04-12T04:40:23;2.63;;;0.80;;
44824;SDS011;30542;47.928;2.138;2023-04-12T04:45:24;1.45;;;0.38;;
44824;SDS011;30542;47.928;2.138;2023-04-12T04:50:29;1.27;;;0.50;;
44824;SDS011;30542;47.928;2.138;2023-04-12T04:55:29;1.37;;;0.30;;
44824;SDS011;30542;47.928;2.138;2023-04-12T05:00:30;1.70;;;0.45;;
44824;SDS011;30542;47.928;2.138;2023-04-12T05:10:31;1.10;;;0.40;;
44824;SDS011;30542;47.928;2.138;2023-04-12T05:15:31;1.40;;;0.30;;
44824;SDS011;30542;47.928;2.138;2023-04-12T05:20:32;1.33;;;0.40;;
44824;SDS011;30542;47.928;2.138;2023-04-12T05:25:32;1.75;;;0.50;;
44824;SDS011;30542;47.928;2.138;2023-04-12T05:30:33;1.10;;;0.30;;
44824;SDS011;30542;47.928;2.138;2023-04-12T05:35:33;1.33;;;0.30;;
44824;SDS011;30542;47.928;2.138;2023-04-12T05:40:34;3.92;;;0.68;;
44824;SDS011;30542;47.928;2.138;2023-04-12T05:45:35;11.65;;;2.75;;
44824;SDS011;30542;47.928;2.138;2023-04-12T05:50:35;12.13;;;3.85;;
44824;SDS011;30542;47.928;2.138;2023-04-12T05:55:36;13.00;;;2.87;;
44824;SDS011;30542;47.928;2.138;2023-04-12T06:00:37;13.40;;;3.07;;
44824;SDS011;30542;47.928;2.138;2023-04-12T06:05:40;12.40;;;3.05;;
44824;SDS011;30542;47.928;2.138;2023-04-12T06:10:41;16.00;;;3.37;;
44824;SDS011;30542;47.928;2.138;2023-04-12T06:15:41;13.93;;;3.00;;
44824;SDS011;30542;47.928;2.138;2023-04-12T06:20:42;14.23;;;3.22;;
44824;SDS011;30542;47.928;2.138;2023-04-12T06:25:42;10.80;;;3.13;;
44824;SDS011;30542;47.928;2.138;2023-04-12T06:30:42;7.35;;;2.53;;
44824;SDS011;30542;47.928;2.138;2023-04-12T06:35:43;14.23;;;3.67;;
44824;SDS011;30542;47.928;2.138;2023-04-12T06:40:43;8.80;;;2.27;;
44824;SDS011;30542;47.928;2.138;2023-04-12T06:45:44;7.78;;;1.92;;
44824;SDS011;30542;47.928;2.138;2023-04-12T06:50:45;9.65;;;2.03;;
44824;SDS011;30542;47.928;2.138;2023-04-12T06:55:45;8.27;;;2.37;;
44824;SDS011;30542;47.928;2.138;2023-04-12T07:00:45;6.72;;;1.60;;
44824;SDS011;30542;47.928;2.138;2023-04-12T07:05:46;7.93;;;1.50;;
44824;SDS011;30542;47.928;2.138;2023-04-12T07:10:51;6.18;;;1.35;;
44824;SDS011;30542;47.928;2.138;2023-04-12T07:15:52;3.90;;;1.02;;
44824;SDS011;30542;47.928;2.138;2023-04-12T07:20:57;2.85;;;0.60;;
44824;SDS011;30542;47.928;2.138;2023-04-12T07:25:58;5.45;;;0.60;;
44824;SDS011;30542;47.928;2.138;2023-04-12T07:30:59;5.47;;;0.70;;
44824;SDS011;30542;47.928;2.138;2023-04-12T07:36:00;1.23;;;0.50;;
44824;SDS011;30542;47.928;2.138;2023-04-12T07:41:01;2.00;;;0.30;;
44824;SDS011;30542;47.928;2.138;2023-04-12T07:46:01;1.40;;;0.40;;
44824;SDS011;30542;47.928;2.138;2023-04-12T07:51:06;5.88;;;0.50;;
44824;SDS011;30542;47.928;2.138;2023-04-12T07:56:07;4.27;;;0.57;;
44824;SDS011;30542;47.928;2.138;2023-04-12T08:01:07;2.55;;;0.55;;
44824;SDS011;30542;47.928;2.138;2023-04-12T08:06:07;4.20;;;0.53;;
44824;SDS011;30542;47.928;2.138;2023-04-12T08:11:09;5.30;;;0.40;;
44824;SDS011;30542;47.928;2.138;2023-04-12T08:16:09;2.17;;;0.35;;
44824;SDS011;30542;47.928;2.138;2023-04-12T08:21:11;3.33;;;0.75;;
44824;SDS011;30542;47.928;2.138;2023-04-12T08:26:12;6.30;;;1.07;;
44824;SDS011;30542;47.928;2.138;2023-04-12T08:31:12;6.17;;;1.30;;
44824;SDS011;30542;47.928;2.138;2023-04-12T08:36:12;3.77;;;0.83;;
44824;SDS011;30542;47.928;2.138;2023-04-12T08:41:13;10.82;;;2.58;;
44824;SDS011;30542;47.928;2.138;2023-04-12T08:46:14;28.48;;;8.05;;
44824;SDS011;30542;47.928;2.138;2023-04-12T08:51:15;17.25;;;5.75;;
44824;SDS011;30542;47.928;2.138;2023-04-12T08:56:16;17.88;;;5.45;;
44824;SDS011;30542;47.928;2.138;2023-04-12T09:01:19;16.55;;;4.75;;
44824;SDS011;30542;47.928;2.138;2023-04-12T09:06:20;18.50;;;6.30;;
44824;SDS011;30542;47.928;2.138;2023-04-12T09:11:24;17.92;;;5.65;;
44824;SDS011;30542;47.928;2.138;2023-04-12T09:16:36;15.05;;;4.97;;
44824;SDS011;30542;47.928;2.138;2023-04-12T09:21:50;13.23;;;5.00;;
44824;SDS011;30542;47.928;2.138;2023-04-12T09:27:04;14.25;;;4.82;;
44824;SDS011;30542;47.928;2.138;2023-04-12T09:32:06;13.38;;;4.28;;
44824;SDS011;30542;47.928;2.138;2023-04-12T09:42:15;8.87;;;3.80;;
44824;SDS011;30542;47.928;2.138;2023-04-12T09:47:15;11.10;;;4.13;;
44824;SDS011;30542;47.928;2.138;2023-04-12T09:52:16;10.23;;;4.05;;
44824;SDS011;30542;47.928;2.138;2023-04-12T09:57:17;14.50;;;4.40;;
44824;SDS011;30542;47.928;2.138;2023-04-12T10:02:22;10.98;;;3.33;;
44824;SDS011;30542;47.928;2.138;2023-04-12T10:07:26;11.60;;;3.92;;
44824;SDS011;30542;47.928;2.138;2023-04-12T10:12:27;7.57;;;2.60;;
44824;SDS011;30542;47.928;2.138;2023-04-12T10:17:27;8.52;;;3.15;;
44824;SDS011;30542;47.928;2.138;2023-04-12T10:22:28;6.87;;;2.80;;
44824;SDS011;30542;47.928;2.138;2023-04-12T10:27:28;7.77;;;3.03;;
44824;SDS011;30542;47.928;2.138;2023-04-12T10:32:28;5.97;;;2.23;;
44824;SDS011;30542;47.928;2.138;2023-04-12T10:48:36;6.05;;;2.60;;
44824;SDS011;30542;47.928;2.138;2023-04-12T10:53:36;6.15;;;2.35;;
44824;SDS011;30542;47.928;2.138;2023-04-12T11:09:05;6.35;;;2.17;;
44824;SDS011;30542;47.928;2.138;2023-04-12T11:14:08;5.88;;;1.67;;
44824;SDS011;30542;47.928;2.138;2023-04-12T11:19:09;5.30;;;1.90;;
44824;SDS011;30542;47.928;2.138;2023-04-12T11:24:10;2.63;;;1.20;;
44824;SDS011;30542;47.928;2.138;2023-04-12T11:29:13;4.38;;;1.45;;
44824;SDS011;30542;47.928;2.138;2023-04-12T11:34:18;4.80;;;1.35;;
44824;SDS011;30542;47.928;2.138;2023-04-12T11:39:19;4.18;;;1.50;;
44824;SDS011;30542;47.928;2.138;2023-04-12T11:44:20;2.53;;;1.10;;
44824;SDS011;30542;47.928;2.138;2023-04-12T11:49:21;2.92;;;1.20;;
44824;SDS011;30542;47.928;2.138;2023-04-12T11:54:26;3.28;;;1.10;;
44824;SDS011;30542;47.928;2.138;2023-04-12T11:59:31;3.75;;;1.25;;
44824;SDS011;30542;47.928;2.138;2023-04-12T12:04:33;3.20;;;1.00;;
44824;SDS011;30542;47.928;2.138;2023-04-12T12:09:33;4.75;;;1.25;;
44824;SDS011;30542;47.928;2.138;2023-04-12T12:14:34;2.70;;;1.15;;
44824;SDS011;30542;47.928;2.138;2023-04-12T12:19:36;2.58;;;0.98;;
44824;SDS011;30542;47.928;2.138;2023-04-12T12:24:38;3.92;;;0.82;;
44824;SDS011;30542;47.928;2.138;2023-04-12T12:29:47;2.60;;;1.23;;
44824;SDS011;30542;47.928;2.138;2023-04-12T12:34:49;2.78;;;1.02;;
44824;SDS011;30542;47.928;2.138;2023-04-12T12:45:06;1.90;;;0.57;;
44824;SDS011;30542;47.928;2.138;2023-04-12T12:50:08;3.58;;;0.80;;
44824;SDS011;30542;47.928;2.138;2023-04-12T12:55:08;2.35;;;0.60;;
44824;SDS011;30542;47.928;2.138;2023-04-12T13:00:10;1.90;;;0.63;;
44824;SDS011;30542;47.928;2.138;2023-04-12T13:05:12;2.17;;;0.60;;
44824;SDS011;30542;47.928;2.138;2023-04-12T13:10:12;2.37;;;0.63;;
44824;SDS011;30542;47.928;2.138;2023-04-12T13:15:13;1.83;;;0.60;;
44824;SDS011;30542;47.928;2.138;2023-04-12T13:20:13;1.23;;;0.50;;
44824;SDS011;30542;47.928;2.138;2023-04-12T13:25:13;1.77;;;0.60;;
44824;SDS011;30542;47.928;2.138;2023-04-12T13:30:14;1.47;;;0.53;;
44824;SDS011;30542;47.928;2.138;2023-04-12T13:35:14;1.40;;;0.50;;
44824;SDS011;30542;47.928;2.138;2023-04-12T13:40:15;1.80;;;0.43;;
44824;SDS011;30542;47.928;2.138;2023-04-12T13:45:15;1.50;;;0.40;;
44824;SDS011;30542;47.928;2.138;2023-04-12T13:50:15;1.13;;;0.50;;
44824;SDS011;30542;47.928;2.138;2023-04-12T13:55:16;1.73;;;0.60;;
44824;SDS011;30542;47.928;2.138;2023-04-12T14:00:16;3.77;;;1.10;;
44824;SDS011;30542;47.928;2.138;2023-04-12T14:05:17;2.83;;;1.10;;
44824;SDS011;30542;47.928;2.138;2023-04-12T14:10:17;3.13;;;0.87;;
44824;SDS011;30542;47.928;2.138;2023-04-12T14:15:18;2.77;;;1.10;;
44824;SDS011;30542;47.928;2.138;2023-04-12T14:20:18;2.40;;;0.65;;
44824;SDS011;30542;47.928;2.138;2023-04-12T14:25:19;1.85;;;0.75;;
44824;SDS011;30542;47.928;2.138;2023-04-12T14:30:20;2.72;;;0.82;;
44824;SDS011;30542;47.928;2.138;2023-04-12T14:35:20;2.10;;;0.60;;
44824;SDS011;30542;47.928;2.138;2023-04-12T14:40:21;1.77;;;0.45;;
44824;SDS011;30542;47.928;2.138;2023-04-12T14:45:21;1.33;;;0.43;;
44824;SDS011;30542;47.928;2.138;2023-04-12T14:50:22;0.97;;;0.50;;
44824;SDS011;30542;47.928;2.138;2023-04-12T14:55:22;1.30;;;0.50;;
44824;SDS011;30542;47.928;2.138;2023-04-12T15:00:23;1.33;;;0.40;;
44824;SDS011;30542;47.928;2.138;2023-04-12T15:05:23;0.70;;;0.40;;
44824;SDS011;30542;47.928;2.138;2023-04-12T15:10:24;2.33;;;0.60;;
44824;SDS011;30542;47.928;2.138;2023-04-12T15:15:24;2.65;;;0.45;;
44824;SDS011;30542;47.928;2.138;2023-04-12T15:20:25;1.90;;;0.30;;
44824;SDS011;30542;47.928;2.138;2023-04-12T15:25:25;1.97;;;0.23;;
44824;SDS011;30542;47.928;2.138;2023-04-12T15:30:26;2.65;;;0.40;;
44824;SDS011;30542;47.928;2.138;2023-04-12T15:35:26;2.20;;;0.30;;
44824;SDS011;30542;47.928;2.138;2023-04-12T15:40:27;3.22;;;0.28;;
44824;SDS011;30542;47.928;2.138;2023-04-12T15:45:27;2.42;;;0.30;;
44824;SDS011;30542;47.928;2.138;2023-04-12T15:50:28;1.10;;;0.30;;
44824;SDS011;30542;47.928;2.138;2023-04-12T15:55:28;0.60;;;0.30;;
44824;SDS011;30542;47.928;2.138;2023-04-12T16:00:28;0.80;;;0.20;;
44824;SDS011;30542;47.928;2.138;2023-04-12T16:05:29;1.58;;;0.25;;
44824;SDS011;30542;47.928;2.138;2023-04-12T16:10:31;1.08;;;0.20;;
44824;SDS011;30542;47.928;2.138;2023-04-12T16:15:32;0.75;;;0.30;;
44824;SDS011;30542;47.928;2.138;2023-04-12T16:20:33;0.60;;;0.20;;
44824;SDS011;30542;47.928;2.138;2023-04-12T16:25:34;1.92;;;0.30;;
44824;SDS011;30542;47.928;2.138;2023-04-12T16:30:35;0.87;;;0.33;;
44824;SDS011;30542;47.928;2.138;2023-04-12T16:35:35;0.95;;;0.30;;
44824;SDS011;30542;47.928;2.138;2023-04-12T16:40:36;0.80;;;0.20;;
44824;SDS011;30542;47.928;2.138;2023-04-12T16:45:36;0.40;;;0.20;;
44824;SDS011;30542;47.928;2.138;2023-04-12T16:50:36;2.23;;;0.30;;
44824;SDS011;30542;47.928;2.138;2023-04-12T16:55:43;1.35;;;0.20;;
44824;SDS011;30542;47.928;2.138;2023-04-12T17:00:48;1.13;;;0.30;;
44824;SDS011;30542;47.928;2.138;2023-04-12T17:05:48;1.07;;;0.20;;
44824;SDS011;30542;47.928;2.138;2023-04-12T17:10:50;0.30;;;0.13;;
44824;SDS011;30542;47.928;2.138;2023-04-12T17:15:51;1.23;;;0.30;;
44824;SDS011;30542;47.928;2.138;2023-04-12T17:20:52;1.50;;;0.28;;
44824;SDS011;30542;47.928;2.138;2023-04-12T17:25:54;0.87;;;0.30;;
44824;SDS011;30542;47.928;2.138;2023-04-12T17:30:55;2.17;;;0.38;;
44824;SDS011;30542;47.928;2.138;2023-04-12T17:35:56;0.85;;;0.20;;
44824;SDS011;30542;47.928;2.138;2023-04-12T17:40:57;0.45;;;0.20;;
44824;SDS011;30542;47.928;2.138;2023-04-12T17:45:57;1.50;;;0.43;;
44824;SDS011;30542;47.928;2.138;2023-04-12T17:51:02;1.90;;;0.50;;
44824;SDS011;30542;47.928;2.138;2023-04-12T17:56:03;4.45;;;0.80;;
44824;SDS011;30542;47.928;2.138;2023-04-12T18:01:04;3.65;;;1.02;;
44824;SDS011;30542;47.928;2.138;2023-04-12T18:06:04;5.18;;;0.90;;
44824;SDS011;30542;47.928;2.138;2023-04-12T18:11:05;5.55;;;1.00;;
44824;SDS011;30542;47.928;2.138;2023-04-12T18:16:06;4.43;;;0.95;;
44824;SDS011;30542;47.928;2.138;2023-04-12T18:21:07;3.37;;;1.20;;
44824;SDS011;30542;47.928;2.138;2023-04-12T18:26:07;4.38;;;0.60;;
44824;SDS011;30542;47.928;2.138;2023-04-12T18:31:08;2.30;;;0.80;;
44824;SDS011;30542;47.928;2.138;2023-04-12T18:36:09;2.33;;;0.60;;
44824;SDS011;30542;47.928;2.138;2023-04-12T18:41:10;2.40;;;0.40;;
44824;SDS011;30542;47.928;2.138;2023-04-12T18:46:17;2.97;;;0.60;;
44824;SDS011;30542;47.928;2.138;2023-04-12T18:51:17;3.38;;;0.55;;
44824;SDS011;30542;47.928;2.138;2023-04-12T18:56:18;3.13;;;0.60;;
44824;SDS011;30542;47.928;2.138;2023-04-12T19:01:23;1.92;;;0.70;;
44824;SDS011;30542;47.928;2.138;2023-04-12T19:06:24;3.10;;;0.63;;
44824;SDS011;30542;47.928;2.138;2023-04-12T19:11:24;1.23;;;0.30;;
44824;SDS011;30542;47.928;2.138;2023-04-12T19:16:25;2.90;;;0.75;;
44824;SDS011;30542;47.928;2.138;2023-04-12T19:21:27;2.90;;;0.60;;
44824;SDS011;30542;47.928;2.138;2023-04-12T19:26:28;3.17;;;0.50;;
44824;SDS011;30542;47.928;2.138;2023-04-12T19:31:29;3.25;;;0.40;;
44824;SDS011;30542;47.928;2.138;2023-04-12T19:36:29;4.37;;;0.50;;
44824;SDS011;30542;47.928;2.138;2023-04-12T19:41:29;3.43;;;0.63;;
44824;SDS011;30542;47.928;2.138;2023-04-12T19:46:33;2.70;;;0.63;;
44824;SDS011;30542;47.928;2.138;2023-04-12T19:51:36;3.58;;;0.50;;
44824;SDS011;30542;47.928;2.138;2023-04-12T19:56:37;2.15;;;0.35;;
44824;SDS011;30542;47.928;2.138;2023-04-12T20:01:38;2.85;;;0.50;;
44824;SDS011;30542;47.928;2.138;2023-04-12T20:06:48;2.03;;;0.40;;
44824;SDS011;30542;47.928;2.138;2023-04-12T20:11:51;1.98;;;0.60;;
44824;SDS011;30542;47.928;2.138;2023-04-12T20:16:51;2.47;;;0.50;;
44824;SDS011;30542;47.928;2.138;2023-04-12T20:21:54;2.55;;;0.40;;
44824;SDS011;30542;47.928;2.138;2023-04-12T20:27:00;2.15;;;0.45;;
44824;SDS011;30542;47.928;2.138;2023-04-12T20:32:01;2.42;;;0.45;;
44824;SDS011;30542;47.928;2.138;2023-04-12T20:37:01;3.60;;;0.50;;
44824;SDS011;30542;47.928;2.138;2023-04-12T20:42:01;6.83;;;0.40;;
44824;SDS011;30542;47.928;2.138;2023-04-12T20:47:02;2.37;;;0.50;;
44824;SDS011;30542;47.928;2.138;2023-04-12T20:52:03;3.97;;;0.65;;
44824;SDS011;30542;47.928;2.138;2023-04-12T20:57:03;2.67;;;0.47;;
44824;SDS011;30542;47.928;2.138;2023-04-12T21:02:04;1.50;;;0.50;;
44824;SDS011;30542;47.928;2.138;2023-04-12T21:07:04;3.03;;;0.63;;
44824;SDS011;30542;47.928;2.138;2023-04-12T21:12:05;1.60;;;0.52;;
44824;SDS011;30542;47.928;2.138;2023-04-12T21:17:07;1.85;;;0.57;;
44824;SDS011;30542;47.928;2.138;2023-04-12T21:22:07;5.03;;;0.70;;
44824;SDS011;30542;47.928;2.138;2023-04-12T21:27:08;2.17;;;0.50;;
44824;SDS011;30542;47.928;2.138;2023-04-12T21:32:08;1.07;;;0.40;;
44824;SDS011;30542;47.928;2.138;2023-04-12T21:37:09;2.85;;;0.55;;
44824;SDS011;30542;47.928;2.138;2023-04-12T21:42:09;1.58;;;0.50;;
44824;SDS011;30542;47.928;2.138;2023-04-12T21:47:10;1.80;;;0.55;;
44824;SDS011;30542;47.928;2.138;2023-04-12T21:52:11;1.48;;;0.40;;
44824;SDS011;30542;47.928;2.138;2023-04-12T21:57:13;1.07;;;0.50;;
44824;SDS011;30542;47.928;2.138;2023-04-12T22:02:14;2.20;;;0.32;;
44824;SDS011;30542;47.928;2.138;2023-04-12T22:07:15;3.77;;;0.50;;
44824;SDS011;30542;47.928;2.138;2023-04-12T22:12:16;2.17;;;0.30;;
44824;SDS011;30542;47.928;2.138;2023-04-12T22:17:17;1.40;;;0.40;;
44824;SDS011;30542;47.928;2.138;2023-04-12T22:22:19;1.48;;;0.35;;
44824;SDS011;30542;47.928;2.138;2023-04-12T22:27:19;1.48;;;0.40;;
44824;SDS011;30542;47.928;2.138;2023-04-12T22:32:20;0.80;;;0.33;;
44824;SDS011;30542;47.928;2.138;2023-04-12T22:37:20;1.42;;;0.30;;
44824;SDS011;30542;47.928;2.138;2023-04-12T22:42:21;1.63;;;0.40;;
44824;SDS011;30542;47.928;2.138;2023-04-12T22:47:25;2.00;;;0.30;;
44824;SDS011;30542;47.928;2.138;2023-04-12T22:52:28;0.55;;;0.20;;
44824;SDS011;30542;47.928;2.138;2023-04-12T22:57:32;1.48;;;0.20;;
44824;SDS011;30542;47.928;2.138;2023-04-12T23:02:34;1.73;;;0.30;;
44824;SDS011;30542;47.928;2.138;2023-04-12T23:07:35;1.00;;;0.30;;
44824;SDS011;30542;47.928;2.138;2023-04-12T23:12:35;1.48;;;0.20;;
44824;SDS011;30542;47.928;2.138;2023-04-12T23:17:36;1.17;;;0.30;;
44824;SDS011;30542;47.928;2.138;2023-04-12T23:22:36;0.53;;;0.23;;
44824;SDS011;30542;47.928;2.138;2023-04-12T23:27:47;0.98;;;0.20;;
44824;SDS011;30542;47.928;2.138;2023-04-12T23:32:48;1.70;;;0.30;;
44824;SDS011;30542;47.928;2.138;2023-04-12T23:37:49;1.50;;;0.30;;
44824;SDS011;30542;47.928;2.138;2023-04-12T23:42:49;2.08;;;0.20;;
44824;SDS011;30542;47.928;2.138;2023-04-12T23:47:49;1.45;;;0.28;;
44824;SDS011;30542;47.928;2.138;2023-04-12T23:52:50;1.00;;;0.20;;
44824;SDS011;30542;47.928;2.138;2023-04-12T23:57:50;1.40;;;0.30;;
